首页
METAR-TAF:

METAR-TAF

机场 :

Avord, 法国

纬度: 47-03-12N, 经度: 002-37-57E, 海拔: 177米

当前天气观测

该预报发布于33分钟前的05:30 UTC
风速6节,风向东转东北
温度 11°C
湿度 87%
气压 1032 hPa
能見度: 9000

METAR: LFOA 250530Z AUTO 07006KT 9000 NSC 11/09 Q1032 NOSIG

时间: 08:03 (06:03 UTC)

预报

该预报发布于1小时和33分钟前的04:30 UTC
预报有效从25日的 03点(UTC)到 26日的 03点(UTC)
风速10节,风向东北
能见度10公里或以上
1500米以下无云,无积雨云

TAF: LFOA 250430Z 2503/2603 05010KT CAVOK

超过4000个机场的气象观测和天气预报(METAR&TAF报告)。

可查询的气象台以黄色和红色小点在地图上表示。

将鼠标移到小点上方,可查看气象台名称。

然后点击查看天气观测和预报。

如需切换地图:点击带黑十字的绿色按钮放大地图;点击带横线的绿色按钮缩小地图;或者点击绿色箭头查看邻近地区的地图。


METAR-TAF: